createdAt,value
2017-12-11T00:00:13.705Z,3.82
2017-12-11T00:01:13.729Z,3.86
2017-12-11T00:02:13.778Z,3.86
2017-12-11T00:03:13.813Z,3.88
2017-12-11T00:04:13.857Z,3.82
2017-12-11T00:05:13.917Z,3.85
2017-12-11T00:06:13.940Z,3.85
2017-12-11T00:07:13.981Z,3.88
2017-12-11T00:08:14.026Z,3.89
2017-12-11T00:09:14.084Z,3.94
2017-12-11T00:10:14.136Z,3.94
2017-12-11T00:11:14.649Z,3.79
2017-12-11T00:12:14.192Z,3.80
2017-12-11T00:13:14.258Z,3.79
2017-12-11T00:14:14.320Z,3.82
2017-12-11T00:15:14.336Z,3.76
2017-12-11T00:16:14.366Z,3.72
2017-12-11T00:17:14.432Z,3.76
2017-12-11T00:18:14.448Z,3.78
2017-12-11T00:19:14.495Z,3.80
2017-12-11T00:20:14.537Z,3.75
2017-12-11T00:21:14.573Z,3.76
2017-12-11T00:22:14.635Z,3.70
2017-12-11T00:23:14.662Z,3.64
2017-12-11T00:24:14.708Z,3.61
2017-12-11T00:25:14.748Z,3.62
2017-12-11T00:26:14.784Z,3.52
2017-12-11T00:27:14.844Z,3.57
2017-12-11T00:28:14.872Z,3.60
2017-12-11T00:29:14.912Z,3.52
2017-12-11T00:30:14.954Z,3.60
2017-12-11T00:31:14.998Z,3.54
2017-12-11T00:32:15.058Z,3.57
2017-12-11T00:33:15.081Z,3.54
2017-12-11T00:34:15.133Z,3.57
2017-12-11T00:35:15.182Z,3.60
2017-12-11T00:36:15.208Z,3.54
2017-12-11T00:37:15.250Z,3.60
2017-12-11T00:38:15.315Z,3.52
2017-12-11T00:39:15.334Z,3.50
2017-12-11T00:40:15.385Z,3.53
2017-12-11T00:41:15.419Z,3.60
2017-12-11T00:42:15.464Z,3.53
2017-12-11T00:43:15.519Z,3.49
2017-12-11T00:44:15.548Z,3.47
2017-12-11T00:45:15.588Z,3.47
2017-12-11T00:46:15.646Z,3.44
2017-12-11T00:47:15.674Z,3.54
2017-12-11T00:48:15.718Z,3.44
2017-12-11T00:49:15.777Z,3.53
2017-12-11T00:50:15.800Z,3.57
2017-12-11T00:51:15.877Z,3.50
2017-12-11T00:52:15.884Z,3.49
2017-12-11T00:53:15.929Z,3.43
2017-12-11T00:54:15.984Z,3.42
2017-12-11T00:55:16.015Z,3.40
2017-12-11T00:56:16.071Z,3.34
2017-12-11T00:57:16.101Z,3.52
2017-12-11T00:58:16.143Z,3.47
2017-12-11T00:59:16.181Z,3.54
2017-12-11T01:00:16.225Z,3.47
2017-12-11T01:01:16.283Z,3.61
2017-12-11T01:02:16.328Z,3.53
2017-12-11T01:03:16.350Z,3.49
2017-12-11T01:04:16.391Z,3.62
2017-12-11T01:05:16.434Z,3.57
2017-12-11T01:06:16.475Z,3.57
2017-12-11T01:07:16.558Z,3.54
2017-12-11T01:08:16.561Z,3.65
2017-12-11T01:09:16.600Z,3.64
2017-12-11T01:10:16.644Z,3.62
2017-12-11T01:11:16.688Z,3.68
2017-12-11T01:12:16.761Z,3.67
2017-12-11T01:13:16.770Z,3.67
2017-12-11T01:14:16.815Z,3.62
2017-12-11T01:15:16.859Z,3.65
2017-12-11T01:16:16.898Z,3.68
2017-12-11T01:17:16.961Z,3.67
2017-12-11T01:18:16.982Z,3.68
2017-12-11T01:19:17.026Z,3.60
2017-12-11T01:20:17.067Z,3.68
2017-12-11T01:21:17.108Z,3.71
2017-12-11T01:22:17.168Z,3.68
2017-12-11T01:23:17.197Z,3.62
2017-12-11T01:24:17.234Z,3.71
2017-12-11T01:25:17.275Z,3.65
2017-12-11T01:26:17.317Z,3.67
2017-12-11T01:27:17.380Z,3.68
2017-12-11T01:28:17.420Z,3.70
2017-12-11T01:29:17.447Z,3.79
2017-12-11T01:30:17.487Z,3.75
2017-12-11T01:31:17.527Z,3.71
2017-12-11T01:32:17.580Z,3.64
2017-12-11T01:33:17.629Z,3.65
2017-12-11T01:34:17.655Z,3.61
2017-12-11T01:35:17.702Z,3.65
2017-12-11T01:36:17.741Z,3.71
2017-12-11T01:37:17.782Z,3.61
2017-12-11T01:38:17.856Z,3.70
2017-12-11T01:39:17.865Z,3.67
2017-12-11T01:40:17.908Z,3.72
2017-12-11T01:41:17.951Z,3.67
2017-12-11T01:42:17.993Z,3.72
2017-12-11T01:43:18.068Z,3.67
2017-12-11T01:44:18.080Z,3.65
2017-12-11T01:45:18.122Z,3.67
2017-12-11T01:46:18.167Z,3.76
2017-12-11T01:47:18.208Z,3.72
2017-12-11T01:48:18.283Z,3.62
2017-12-11T01:49:18.293Z,3.65
2017-12-11T01:50:18.332Z,3.64
2017-12-11T01:51:18.375Z,3.65
2017-12-11T01:52:18.419Z,3.60
2017-12-11T01:53:18.493Z,3.65
2017-12-11T01:54:18.501Z,3.68
2017-12-11T01:55:18.545Z,3.67
2017-12-11T01:56:18.588Z,3.70
2017-12-11T01:57:18.630Z,3.67
2017-12-11T01:58:18.711Z,3.65
2017-12-11T01:59:18.713Z,3.70
2017-12-11T02:00:18.757Z,3.61
2017-12-11T02:01:18.798Z,3.62
2017-12-11T02:02:18.840Z,3.62
2017-12-11T02:03:18.898Z,3.71
2017-12-11T02:04:18.928Z,3.79
2017-12-11T02:05:18.966Z,3.78
2017-12-11T02:06:19.010Z,3.78
2017-12-11T02:07:19.057Z,3.78
2017-12-11T02:08:19.131Z,3.78
2017-12-11T02:09:19.141Z,3.78
2017-12-11T02:10:19.180Z,3.89
2017-12-11T02:11:19.221Z,3.86
2017-12-11T02:12:19.263Z,3.82
2017-12-11T02:13:19.321Z,3.80
2017-12-11T02:14:19.361Z,3.94
2017-12-11T02:15:19.388Z,3.82
2017-12-11T02:16:19.433Z,3.85
2017-12-11T02:17:19.474Z,3.89
2017-12-11T02:18:19.515Z,3.89
2017-12-11T02:19:19.586Z,3.85
2017-12-11T02:20:19.604Z,3.90
2017-12-11T02:21:19.641Z,3.83
2017-12-11T02:22:19.685Z,3.85
2017-12-11T02:23:19.727Z,3.90
2017-12-11T02:24:19.796Z,3.82
2017-12-11T02:25:19.811Z,3.80
2017-12-11T02:26:19.856Z,3.85
2017-12-11T02:27:19.899Z,3.79
2017-12-11T02:28:19.939Z,3.78
2017-12-11T02:29:19.995Z,3.86
2017-12-11T02:30:20.022Z,3.90
2017-12-11T02:31:20.064Z,3.83
2017-12-11T02:32:20.108Z,3.78
2017-12-11T02:33:20.148Z,3.86
2017-12-11T02:34:20.209Z,3.82
2017-12-11T02:35:20.252Z,3.85
2017-12-11T02:36:20.276Z,3.88
2017-12-11T02:37:20.320Z,3.86
2017-12-11T02:38:20.361Z,3.82
2017-12-11T02:39:20.420Z,3.78
2017-12-11T02:40:20.469Z,3.78
2017-12-11T02:41:20.491Z,3.78
2017-12-11T02:42:20.534Z,3.78
2017-12-11T02:43:20.574Z,3.78
2017-12-11T02:44:20.616Z,3.79
2017-12-11T02:45:20.676Z,3.79
2017-12-11T02:46:20.698Z,3.78
2017-12-11T02:47:20.747Z,3.85
2017-12-11T02:48:20.786Z,3.79
2017-12-11T02:49:20.844Z,3.72
2017-12-11T02:50:20.870Z,3.72
2017-12-11T02:51:20.928Z,3.85
2017-12-11T02:52:20.954Z,3.80
2017-12-11T02:53:21.015Z,3.83
2017-12-11T02:54:21.037Z,3.89
2017-12-11T02:55:21.084Z,3.89
2017-12-11T02:56:21.146Z,3.78
2017-12-11T02:57:21.176Z,3.72
2017-12-11T02:58:21.208Z,3.76
2017-12-11T02:59:21.250Z,3.79
2017-12-11T03:00:21.294Z,3.72
2017-12-11T03:01:21.352Z,3.75
2017-12-11T03:02:21.378Z,3.78
2017-12-11T03:03:21.420Z,3.85
2017-12-11T03:04:21.461Z,3.80
2017-12-11T03:05:21.505Z,3.80
2017-12-11T03:06:21.562Z,3.71
2017-12-11T03:07:21.603Z,3.78
2017-12-11T03:08:21.632Z,3.78
2017-12-11T03:09:21.675Z,3.82
2017-12-11T03:10:21.716Z,3.72
2017-12-11T03:11:21.764Z,3.72
2017-12-11T03:12:21.844Z,3.71
2017-12-11T03:13:21.841Z,3.68
2017-12-11T03:14:21.888Z,3.72
2017-12-11T03:15:21.926Z,3.71
2017-12-11T03:16:21.969Z,3.67
2017-12-11T03:17:22.027Z,3.61
2017-12-11T03:18:22.052Z,3.57
2017-12-11T03:19:22.094Z,3.57
2017-12-11T03:20:22.137Z,3.53
2017-12-11T03:21:22.178Z,3.54
2017-12-11T03:22:22.238Z,3.52
2017-12-11T03:23:22.282Z,3.53
2017-12-11T03:24:22.308Z,3.54
2017-12-11T03:25:22.347Z,3.46
2017-12-11T03:26:22.388Z,3.54
2017-12-11T03:27:22.439Z,3.49
2017-12-11T03:28:22.490Z,3.43
2017-12-11T03:29:22.515Z,3.53
2017-12-11T03:30:22.561Z,3.49
2017-12-11T03:31:22.600Z,3.44
2017-12-11T03:32:22.642Z,3.40
2017-12-11T03:33:22.698Z,3.40
2017-12-11T03:34:22.726Z,3.31
2017-12-11T03:35:22.768Z,3.33
2017-12-11T03:36:22.809Z,3.30
2017-12-11T03:37:22.852Z,3.21
2017-12-11T03:38:22.913Z,3.25
2017-12-11T03:39:22.968Z,3.23
2017-12-11T03:40:22.985Z,3.24
2017-12-11T03:41:23.022Z,3.24
2017-12-11T03:42:23.062Z,3.24
2017-12-11T03:43:23.104Z,3.23
2017-12-11T03:44:23.181Z,3.24
2017-12-11T03:45:23.187Z,3.10
2017-12-11T03:46:23.230Z,3.15
2017-12-11T03:47:23.272Z,3.15
2017-12-11T03:48:23.316Z,3.15
2017-12-11T03:49:23.389Z,3.12
2017-12-11T03:50:23.398Z,3.18
2017-12-11T03:51:23.440Z,3.18
2017-12-11T03:52:23.490Z,3.18
2017-12-11T03:53:23.526Z,3.21
2017-12-11T03:54:23.580Z,3.20
2017-12-11T03:55:23.613Z,3.33
2017-12-11T03:56:23.653Z,3.34
2017-12-11T03:57:23.690Z,3.36
2017-12-11T03:58:23.737Z,3.46
2017-12-11T03:59:23.817Z,3.53
2017-12-11T04:00:23.823Z,3.61
2017-12-11T04:01:23.863Z,3.54
2017-12-11T04:02:23.899Z,3.53
2017-12-11T04:03:23.942Z,3.60
2017-12-11T04:04:24.001Z,3.58
2017-12-11T04:05:24.025Z,3.52
2017-12-11T04:06:24.083Z,3.60
2017-12-11T04:07:24.113Z,3.52
2017-12-11T04:08:24.153Z,3.60
2017-12-11T04:09:24.196Z,3.57
2017-12-11T04:10:24.236Z,3.58
2017-12-11T04:11:24.295Z,3.60
2017-12-11T04:12:24.321Z,3.57
2017-12-11T04:13:24.363Z,3.71
2017-12-11T04:14:24.403Z,3.65
2017-12-11T04:15:24.480Z,3.68
2017-12-11T04:16:24.488Z,3.68
2017-12-11T04:17:24.530Z,3.58
2017-12-11T04:18:24.569Z,3.54
2017-12-11T04:19:24.621Z,3.60
2017-12-11T04:20:24.689Z,3.70
2017-12-11T04:21:24.712Z,3.70
2017-12-11T04:22:24.740Z,3.75
2017-12-11T04:23:24.780Z,3.85
2017-12-11T04:24:24.823Z,3.80
2017-12-11T04:25:24.883Z,3.98
2017-12-11T04:26:24.906Z,3.98
2017-12-11T04:27:24.967Z,3.90
2017-12-11T04:28:24.994Z,4.04
2017-12-11T04:29:25.031Z,4.07
2017-12-11T04:30:25.076Z,4.22
2017-12-11T04:31:25.133Z,4.33
2017-12-11T04:32:25.162Z,4.40
2017-12-11T04:33:25.203Z,4.54
2017-12-11T04:34:25.245Z,4.55
2017-12-11T04:35:25.288Z,4.69
2017-12-11T04:36:25.346Z,4.77
2017-12-11T04:37:25.370Z,4.79
2017-12-11T04:38:25.412Z,4.80
2017-12-11T04:39:25.469Z,4.72
2017-12-11T04:40:25.498Z,4.75
2017-12-11T04:41:25.557Z,4.75
2017-12-11T04:42:25.588Z,4.70
2017-12-11T04:43:25.641Z,4.51
2017-12-11T04:44:25.668Z,4.36
2017-12-11T04:45:25.712Z,4.36
2017-12-11T04:46:25.752Z,4.24
2017-12-11T04:47:25.799Z,4.26
2017-12-11T04:48:25.856Z,4.29
2017-12-11T04:49:25.881Z,4.21
2017-12-11T04:50:25.924Z,4.24
2017-12-11T04:51:25.981Z,4.22
2017-12-11T04:52:26.006Z,4.25
2017-12-11T04:53:26.048Z,4.21
2017-12-11T04:54:26.107Z,4.24
2017-12-11T04:55:26.938Z,4.08
2017-12-11T04:56:26.196Z,4.18
2017-12-11T04:57:26.218Z,4.26
2017-12-11T04:58:26.262Z,4.15
2017-12-11T04:59:26.303Z,4.24
2017-12-11T05:00:26.363Z,4.29
2017-12-11T05:01:26.431Z,4.16
2017-12-11T05:02:26.432Z,4.16
2017-12-11T05:03:26.476Z,4.16
2017-12-11T05:04:26.522Z,4.28
2017-12-11T05:05:26.576Z,4.22
2017-12-11T05:06:26.628Z,4.26
2017-12-11T05:07:26.645Z,4.16
2017-12-11T05:08:26.690Z,4.28
2017-12-11T05:09:26.729Z,4.22
2017-12-11T05:10:26.795Z,4.22
2017-12-11T05:11:26.849Z,4.03
2017-12-11T05:12:26.858Z,4.08
2017-12-11T05:13:26.900Z,4.03
2017-12-11T05:14:26.943Z,4.03
2017-12-11T05:15:26.987Z,4.01
2017-12-11T05:16:27.064Z,4.03
2017-12-11T05:17:27.071Z,3.90
2017-12-11T05:18:27.115Z,3.97
2017-12-11T05:19:27.162Z,3.90
2017-12-11T05:20:27.198Z,4.03
2017-12-11T05:21:27.277Z,4.00
2017-12-11T05:22:27.287Z,3.92
2017-12-11T05:23:27.327Z,4.00
2017-12-11T05:24:27.370Z,4.00
2017-12-11T05:25:27.410Z,4.01
2017-12-11T05:26:27.489Z,4.00
2017-12-11T05:27:27.496Z,3.96
2017-12-11T05:28:27.538Z,4.04
2017-12-11T05:29:27.581Z,4.07
2017-12-11T05:30:27.623Z,4.10
2017-12-11T05:31:27.683Z,4.14
2017-12-11T05:32:27.736Z,4.25
2017-12-11T05:33:27.754Z,4.26
2017-12-11T05:34:27.797Z,4.29
2017-12-11T05:35:27.858Z,4.26
2017-12-11T05:36:27.879Z,4.36
2017-12-11T05:37:27.937Z,4.34
2017-12-11T05:38:27.980Z,4.28
2017-12-11T05:39:28.009Z,4.22
2017-12-11T05:40:28.052Z,4.28
2017-12-11T05:41:28.099Z,4.26
2017-12-11T05:42:28.156Z,4.34
2017-12-11T05:43:28.176Z,4.37
2017-12-11T05:44:28.221Z,4.40
2017-12-11T05:45:28.262Z,4.51
2017-12-11T05:46:28.304Z,4.47
2017-12-11T05:47:28.365Z,4.64
2017-12-11T05:48:28.391Z,4.62
2017-12-11T05:49:28.436Z,4.67
2017-12-11T05:50:28.503Z,4.65
2017-12-11T05:51:28.522Z,4.67
2017-12-11T05:52:28.582Z,4.84
2017-12-11T05:53:28.603Z,4.76
2017-12-11T05:54:28.646Z,4.88
2017-12-11T05:55:28.688Z,4.91
2017-12-11T05:56:28.731Z,4.99
2017-12-11T05:57:28.790Z,5.02
2017-12-11T05:58:28.818Z,4.98
2017-12-11T05:59:28.861Z,4.99
2017-12-11T06:00:28.903Z,4.95
2017-12-11T06:01:28.960Z,4.99
2017-12-11T06:02:28.990Z,4.99
2017-12-11T06:03:29.050Z,5.12
2017-12-11T06:04:29.074Z,5.14
2017-12-11T06:05:29.118Z,5.05
2017-12-11T06:06:29.159Z,5.17
2017-12-11T06:07:29.205Z,5.22
2017-12-11T06:08:29.266Z,5.22
2017-12-11T06:09:29.288Z,5.22
2017-12-11T06:10:29.337Z,5.22
2017-12-11T06:11:29.377Z,5.31
2017-12-11T06:12:29.417Z,5.32
2017-12-11T06:13:29.479Z,5.30
2017-12-11T06:14:29.506Z,5.30
2017-12-11T06:15:29.545Z,5.30
2017-12-11T06:16:29.589Z,5.32
2017-12-11T06:17:29.637Z,5.31
2017-12-11T06:18:29.695Z,5.28
2017-12-11T06:19:29.717Z,5.28
2017-12-11T06:20:29.768Z,5.35
2017-12-11T06:21:29.803Z,5.30
2017-12-11T06:22:29.851Z,5.28
2017-12-11T06:23:29.909Z,5.28
2017-12-11T06:24:29.934Z,5.35
2017-12-11T06:25:29.979Z,5.45
2017-12-11T06:26:30.018Z,5.49
2017-12-11T06:27:30.063Z,5.55
2017-12-11T06:28:30.124Z,5.59
2017-12-11T06:29:30.166Z,5.49
2017-12-11T06:30:30.191Z,5.55
2017-12-11T06:31:30.236Z,5.49
2017-12-11T06:32:30.279Z,5.53
2017-12-11T06:33:30.320Z,5.55
2017-12-11T06:34:30.400Z,5.59
2017-12-11T06:35:30.409Z,5.75
2017-12-11T06:36:30.451Z,5.83
2017-12-11T06:37:30.496Z,6.00
2017-12-11T06:38:30.538Z,6.00
2017-12-11T06:39:30.596Z,6.07
2017-12-11T06:40:30.624Z,5.96
2017-12-11T06:41:31.183Z,6.00
2017-12-11T06:42:30.709Z,5.85
2017-12-11T06:43:30.753Z,5.95
2017-12-11T06:44:30.816Z,5.88
2017-12-11T06:45:30.839Z,5.86
2017-12-11T06:46:30.888Z,5.81
2017-12-11T06:47:30.927Z,5.81
2017-12-11T06:48:30.970Z,5.70
2017-12-11T06:49:31.029Z,5.89
2017-12-11T06:50:31.056Z,5.86
2017-12-11T06:51:31.100Z,5.89
2017-12-11T06:52:31.146Z,6.01
2017-12-11T06:53:31.190Z,6.06
2017-12-11T06:54:31.273Z,6.14
2017-12-11T06:55:31.272Z,6.32
2017-12-11T06:56:31.316Z,6.40
2017-12-11T06:57:31.358Z,6.61
2017-12-11T06:58:31.405Z,6.65
2017-12-11T06:59:31.465Z,6.76
2017-12-11T07:00:31.495Z,6.72
2017-12-11T07:01:31.535Z,6.76
2017-12-11T07:02:31.577Z,6.72
2017-12-11T07:03:31.638Z,6.72
2017-12-11T07:04:31.664Z,6.79
2017-12-11T07:05:31.723Z,6.79
2017-12-11T07:06:31.751Z,6.69
2017-12-11T07:07:31.795Z,6.79
2017-12-11T07:08:31.841Z,6.83
2017-12-11T07:09:31.906Z,6.84
2017-12-11T07:10:31.926Z,6.91
2017-12-11T07:11:31.972Z,6.94
2017-12-11T07:12:32.014Z,6.90
2017-12-11T07:13:32.057Z,6.90
2017-12-11T07:14:32.120Z,6.86
2017-12-11T07:15:32.167Z,6.79
2017-12-11T07:16:32.200Z,6.77
2017-12-11T07:17:32.235Z,6.65
2017-12-11T07:18:32.279Z,6.65
2017-12-11T07:19:32.321Z,6.63
2017-12-11T07:20:32.389Z,6.89
2017-12-11T07:21:32.410Z,7.09
2017-12-11T07:22:32.454Z,7.05
2017-12-11T07:23:32.499Z,6.97
2017-12-11T07:24:32.544Z,6.90
2017-12-11T07:25:32.607Z,6.91
2017-12-11T07:26:32.630Z,6.95
2017-12-11T07:27:32.687Z,6.95
2017-12-11T07:28:32.717Z,6.97
2017-12-11T07:29:32.762Z,7.04
2017-12-11T07:30:32.822Z,7.13
2017-12-11T07:31:32.849Z,7.15
2017-12-11T07:32:32.896Z,7.02
2017-12-11T07:33:32.950Z,7.04
2017-12-11T07:34:32.984Z,6.99
2017-12-11T07:35:33.041Z,6.94
2017-12-11T07:36:33.092Z,6.95
2017-12-11T07:37:33.115Z,7.62
2017-12-11T07:38:33.159Z,7.62
2017-12-11T07:39:33.201Z,7.74
2017-12-11T07:40:33.249Z,7.62
2017-12-11T07:41:33.306Z,7.45
2017-12-11T07:42:33.334Z,7.27
2017-12-11T07:43:33.378Z,7.29
2017-12-11T07:44:33.428Z,6.91
2017-12-11T07:45:33.470Z,6.86
2017-12-11T07:46:33.527Z,6.77
2017-12-11T07:47:33.562Z,6.68
2017-12-11T07:48:33.604Z,6.56
2017-12-11T07:49:33.672Z,6.44
2017-12-11T07:50:33.696Z,6.44
2017-12-11T07:51:33.767Z,6.41
2017-12-11T07:52:33.777Z,6.26
2017-12-11T07:53:33.819Z,6.25
2017-12-11T07:54:33.864Z,6.16
2017-12-11T07:55:33.914Z,6.14
2017-12-11T07:56:33.970Z,6.14
2017-12-11T07:57:34.011Z,6.13
2017-12-11T07:58:34.040Z,6.04
2017-12-11T07:59:34.085Z,6.13
2017-12-11T08:00:34.128Z,5.98
2017-12-11T08:01:34.175Z,6.04
2017-12-11T08:02:34.236Z,6.06
2017-12-11T08:03:34.263Z,6.07
2017-12-11T08:04:34.306Z,6.03
2017-12-11T08:05:34.350Z,6.11
2017-12-11T08:06:34.402Z,5.98
2017-12-11T08:07:34.454Z,6.14
2017-12-11T08:08:34.484Z,6.09
2017-12-11T08:09:34.526Z,5.98
2017-12-11T08:10:34.569Z,5.95
2017-12-11T08:11:34.681Z,6.00
2017-12-11T08:12:34.682Z,5.96
2017-12-11T08:13:34.703Z,5.93
2017-12-11T08:14:34.745Z,5.96
2017-12-11T08:15:34.790Z,5.91
2017-12-11T08:16:34.832Z,6.11
2017-12-11T08:17:34.899Z,6.09
2017-12-11T08:18:34.922Z,6.03
2017-12-11T08:19:34.967Z,6.10
2017-12-11T08:20:35.012Z,6.18
2017-12-11T08:21:35.058Z,6.32
2017-12-11T08:22:35.116Z,6.30
2017-12-11T08:23:35.140Z,6.25
2017-12-11T08:24:35.185Z,6.33
2017-12-11T08:25:35.227Z,6.32
2017-12-11T08:26:35.272Z,6.36
2017-12-11T08:27:35.335Z,6.35
2017-12-11T08:28:35.378Z,6.35
2017-12-11T08:29:35.406Z,6.43
2017-12-11T08:30:35.448Z,6.40
2017-12-11T08:31:35.495Z,6.46
2017-12-11T08:32:35.538Z,6.48
2017-12-11T08:33:35.608Z,6.53
2017-12-11T08:34:35.627Z,6.50
2017-12-11T08:35:35.672Z,6.48
2017-12-11T08:36:35.714Z,6.40
2017-12-11T08:37:35.756Z,6.43
2017-12-11T08:38:35.816Z,6.46
2017-12-11T08:39:35.845Z,6.41
2017-12-11T08:40:35.889Z,6.38
2017-12-11T08:41:35.932Z,6.35
2017-12-11T08:42:35.976Z,6.33
2017-12-11T08:43:36.036Z,6.36
2017-12-11T08:44:36.070Z,6.35
2017-12-11T08:45:36.124Z,6.36
2017-12-11T08:46:36.158Z,6.30
2017-12-11T08:47:36.202Z,6.30
2017-12-11T08:48:36.241Z,6.29
2017-12-11T08:49:36.287Z,6.26
2017-12-11T08:50:36.362Z,6.35
2017-12-11T08:51:36.373Z,6.33
2017-12-11T08:52:36.419Z,6.30
2017-12-11T08:53:36.461Z,6.33
2017-12-11T08:54:36.507Z,6.30
2017-12-11T08:55:36.596Z,6.32
2017-12-11T08:56:36.598Z,6.40
2017-12-11T08:57:36.641Z,6.33
2017-12-11T08:58:36.684Z,6.26
2017-12-11T08:59:36.728Z,6.33
2017-12-11T09:00:36.790Z,6.29
2017-12-11T09:01:36.814Z,6.35
2017-12-11T09:02:36.858Z,6.38
2017-12-11T09:03:36.905Z,6.36
2017-12-11T09:04:36.946Z,6.43
2017-12-11T09:05:37.009Z,6.47
2017-12-11T09:06:37.034Z,6.50
2017-12-11T09:07:37.086Z,6.44
2017-12-11T09:08:37.123Z,6.48
2017-12-11T09:09:37.168Z,6.53
2017-12-11T09:10:37.224Z,6.44
2017-12-11T09:11:37.255Z,6.51
2017-12-11T09:12:37.300Z,6.51
2017-12-11T09:13:37.341Z,6.46
2017-12-11T09:14:37.386Z,6.51
2017-12-11T09:15:37.449Z,6.44
2017-12-11T09:16:37.477Z,6.46
2017-12-11T09:17:37.519Z,6.44
2017-12-11T09:18:37.562Z,6.50
2017-12-11T09:19:37.610Z,6.51
2017-12-11T09:20:37.669Z,6.41
2017-12-11T09:21:37.718Z,6.47
2017-12-11T09:22:37.744Z,6.48
2017-12-11T09:23:37.784Z,6.40
2017-12-11T09:24:37.829Z,6.35
2017-12-11T09:25:37.874Z,6.36
2017-12-11T09:26:37.935Z,6.26
2017-12-11T09:27:37.960Z,6.14
2017-12-11T09:28:38.007Z,6.03
2017-12-11T09:29:38.048Z,6.01
2017-12-11T09:30:38.097Z,5.95
2017-12-11T09:31:38.156Z,5.93
2017-12-11T09:32:38.183Z,5.95
2017-12-11T09:33:38.229Z,5.91
2017-12-11T09:34:38.267Z,5.74
2017-12-11T09:35:38.315Z,5.74
2017-12-11T09:36:38.375Z,5.71
2017-12-11T09:37:38.402Z,5.68
2017-12-11T09:38:38.444Z,5.63
2017-12-11T09:39:38.489Z,5.64
2017-12-11T09:40:38.535Z,5.55
2017-12-11T09:41:38.597Z,5.38
2017-12-11T09:42:38.619Z,5.45
2017-12-11T09:43:38.671Z,5.38
2017-12-11T09:44:38.709Z,5.45
2017-12-11T09:45:38.752Z,5.32
2017-12-11T09:46:38.817Z,5.45
2017-12-11T09:47:38.839Z,5.37
2017-12-11T09:48:38.883Z,5.37
2017-12-11T09:49:38.926Z,5.38
2017-12-11T09:50:38.971Z,5.37
2017-12-11T09:51:39.033Z,5.37
2017-12-11T09:52:39.057Z,5.32
2017-12-11T09:53:39.100Z,5.38
2017-12-11T09:54:39.146Z,5.41
2017-12-11T09:55:39.189Z,5.38
2017-12-11T09:56:39.248Z,5.32
2017-12-11T09:57:39.280Z,5.43
2017-12-11T09:58:39.321Z,5.38
2017-12-11T09:59:39.363Z,5.48
2017-12-11T10:00:39.406Z,5.52
2017-12-11T10:01:39.466Z,5.50
2017-12-11T10:02:39.492Z,5.59
2017-12-11T10:03:39.558Z,5.50
2017-12-11T10:04:39.581Z,5.53
2017-12-11T10:05:39.622Z,5.53
2017-12-11T10:06:39.669Z,5.50
2017-12-11T10:07:39.710Z,5.60
2017-12-11T10:08:39.768Z,5.67
2017-12-11T10:09:39.833Z,5.60
2017-12-11T10:10:39.838Z,5.66
2017-12-11T10:11:39.883Z,5.56
2017-12-11T10:12:39.926Z,5.56
2017-12-11T10:13:39.988Z,5.60
2017-12-11T10:14:40.030Z,5.56
2017-12-11T10:15:40.065Z,5.55
2017-12-11T10:16:40.102Z,5.64
2017-12-11T10:17:40.144Z,5.63
2017-12-11T10:18:40.188Z,5.59
2017-12-11T10:19:40.249Z,5.60
2017-12-11T10:20:40.275Z,5.57
2017-12-11T10:21:40.317Z,5.57
2017-12-11T10:22:40.368Z,5.57
2017-12-11T10:23:40.406Z,5.48
2017-12-11T10:24:40.468Z,5.59
2017-12-11T10:25:40.492Z,5.55
2017-12-11T10:26:40.532Z,5.56
2017-12-11T10:27:40.576Z,5.70
2017-12-11T10:28:40.628Z,5.60
2017-12-11T10:29:40.679Z,5.59
2017-12-11T10:30:40.723Z,5.63
2017-12-11T10:31:40.751Z,5.55
2017-12-11T10:32:40.793Z,5.57
2017-12-11T10:33:40.839Z,5.64
2017-12-11T10:34:40.882Z,5.60
2017-12-11T10:35:40.941Z,5.60
2017-12-11T10:36:40.968Z,5.59
2017-12-11T10:37:41.012Z,5.57
2017-12-11T10:38:41.054Z,5.57
2017-12-11T10:39:41.102Z,5.60
2017-12-11T10:40:41.157Z,5.60
2017-12-11T10:41:41.198Z,5.63
2017-12-11T10:42:41.228Z,5.55
2017-12-11T10:43:41.274Z,5.57
2017-12-11T10:44:41.319Z,5.57
2017-12-11T10:45:41.361Z,5.64
2017-12-11T10:46:41.438Z,5.63
2017-12-11T10:47:41.447Z,5.60
2017-12-11T10:48:41.488Z,5.68
2017-12-11T10:49:41.533Z,5.66
2017-12-11T10:50:41.578Z,5.57
2017-12-11T10:51:41.654Z,5.63
2017-12-11T10:52:41.663Z,5.64
2017-12-11T10:53:41.710Z,5.64
2017-12-11T10:54:41.751Z,5.66
2017-12-11T10:55:41.795Z,5.67
2017-12-11T10:56:41.853Z,5.66
2017-12-11T10:57:41.896Z,5.66
2017-12-11T10:58:41.927Z,5.66
2017-12-11T10:59:41.970Z,5.55
2017-12-11T11:00:42.012Z,5.60
2017-12-11T11:01:42.054Z,5.60
2017-12-11T11:02:42.117Z,5.64
2017-12-11T11:03:42.148Z,5.52
2017-12-11T11:04:42.184Z,5.56
2017-12-11T11:05:42.229Z,5.56
2017-12-11T11:06:42.269Z,5.52
2017-12-11T11:07:42.334Z,5.52
2017-12-11T11:08:42.362Z,5.60
2017-12-11T11:09:42.399Z,5.63
2017-12-11T11:10:42.443Z,5.64
2017-12-11T11:11:42.491Z,5.63
2017-12-11T11:12:42.548Z,5.64
2017-12-11T11:13:42.574Z,5.68
2017-12-11T11:14:42.619Z,5.66
2017-12-11T11:15:42.662Z,5.70
2017-12-11T11:16:42.707Z,5.68
2017-12-11T11:17:42.764Z,5.73
2017-12-11T11:18:42.807Z,5.70
2017-12-11T11:19:42.838Z,5.67
2017-12-11T11:20:42.881Z,5.67
2017-12-11T11:21:42.921Z,5.73
2017-12-11T11:22:42.968Z,5.73
2017-12-11T11:23:43.033Z,5.73
2017-12-11T11:24:43.050Z,5.68
2017-12-11T11:25:43.099Z,5.68
2017-12-11T11:26:43.142Z,5.71
2017-12-11T11:27:43.185Z,5.74
2017-12-11T11:28:43.266Z,5.71
2017-12-11T11:29:43.271Z,5.73
2017-12-11T11:30:43.320Z,5.74
2017-12-11T11:31:43.368Z,5.78
2017-12-11T11:32:43.402Z,5.75
2017-12-11T11:33:43.468Z,5.78
2017-12-11T11:34:43.491Z,5.77
2017-12-11T11:35:43.536Z,5.75
2017-12-11T11:36:43.584Z,5.81
2017-12-11T11:37:43.621Z,5.82
2017-12-11T11:38:43.681Z,5.82
2017-12-11T11:39:43.722Z,5.85
2017-12-11T11:40:43.751Z,5.77
2017-12-11T11:41:43.797Z,5.75
2017-12-11T11:42:43.839Z,5.73
2017-12-11T11:43:43.897Z,5.78
2017-12-11T11:44:43.926Z,5.75
2017-12-11T11:45:43.985Z,5.81
2017-12-11T11:46:44.015Z,5.85
2017-12-11T11:47:44.056Z,5.81
2017-12-11T11:48:44.103Z,5.88
2017-12-11T11:49:44.144Z,5.83
2017-12-11T11:50:44.203Z,5.86
2017-12-11T11:51:44.231Z,5.92
2017-12-11T11:52:44.274Z,5.93
2017-12-11T11:53:44.334Z,5.96
2017-12-11T11:54:44.360Z,6.01
2017-12-11T11:55:44.405Z,6.00
2017-12-11T11:56:44.450Z,6.01
2017-12-11T11:57:44.494Z,6.04
2017-12-11T11:58:44.557Z,6.07
2017-12-11T11:59:44.579Z,6.14
2017-12-11T12:00:44.626Z,6.16
2017-12-11T12:01:44.668Z,6.16
2017-12-11T12:02:44.715Z,6.14
2017-12-11T12:03:44.776Z,6.16
2017-12-11T12:04:44.815Z,6.13
2017-12-11T12:05:44.846Z,6.14
2017-12-11T12:06:44.886Z,6.11
2017-12-11T12:07:44.933Z,6.25
2017-12-11T12:08:44.976Z,6.40
2017-12-11T12:09:45.034Z,6.40
2017-12-11T12:10:45.078Z,6.46
2017-12-11T12:11:45.107Z,6.58
2017-12-11T12:12:45.155Z,7.26
2017-12-11T12:13:45.193Z,8.72
2017-12-11T12:14:45.254Z,10.25
2017-12-11T12:15:45.297Z,11.54
2017-12-11T12:16:45.328Z,12.82
2017-12-11T12:17:45.369Z,13.22
2017-12-11T12:18:45.414Z,13.58
2017-12-11T12:19:45.458Z,13.62
2017-12-11T12:20:45.528Z,13.73
2017-12-11T12:21:45.549Z,13.63
2017-12-11T12:22:45.593Z,13.80
2017-12-11T12:23:45.639Z,13.98
2017-12-11T12:24:45.688Z,13.88
2017-12-11T12:25:45.751Z,13.87
2017-12-11T12:26:45.778Z,14.01
2017-12-11T12:27:45.842Z,13.94
2017-12-11T12:28:45.876Z,13.84
2017-12-11T12:29:45.925Z,13.76
2017-12-11T12:30:45.965Z,13.56
2017-12-11T12:31:46.014Z,13.69
2017-12-11T12:32:46.072Z,13.58
2017-12-11T12:33:46.108Z,13.40
2017-12-11T12:34:46.152Z,13.83
2017-12-11T12:35:46.213Z,13.94
2017-12-11T12:36:46.247Z,14.09
2017-12-11T12:37:46.308Z,14.02
2017-12-11T12:38:46.338Z,13.88
2017-12-11T12:39:46.386Z,13.80
2017-12-11T12:40:46.434Z,14.10
2017-12-11T12:41:46.484Z,14.37
2017-12-11T12:42:46.593Z,14.56
2017-12-11T12:43:46.585Z,14.39
2017-12-11T12:44:46.623Z,14.28
2017-12-11T12:45:46.670Z,14.17
2017-12-11T12:46:46.719Z,14.04
2017-12-11T12:47:46.784Z,14.10
2017-12-11T12:48:46.813Z,14.07
2017-12-11T12:49:46.863Z,14.06
2017-12-11T12:50:46.911Z,14.02
2017-12-11T12:51:46.959Z,13.88
2017-12-11T12:52:47.023Z,13.83
2017-12-11T12:53:47.055Z,13.98
2017-12-11T12:54:47.117Z,14.06
2017-12-11T12:55:47.146Z,13.98
2017-12-11T12:56:47.198Z,14.20
2017-12-11T12:57:47.264Z,14.39
2017-12-11T12:58:47.318Z,14.39
2017-12-11T12:59:47.339Z,14.31
2017-12-11T13:00:47.385Z,14.16
2017-12-11T13:01:47.437Z,14.09
2017-12-11T13:02:47.498Z,13.94
2017-12-11T13:03:47.529Z,13.98
2017-12-11T13:04:47.597Z,14.09
2017-12-11T13:05:47.629Z,14.07
2017-12-11T13:06:47.679Z,14.19
2017-12-11T13:07:47.719Z,14.02
2017-12-11T13:08:47.770Z,13.55
2017-12-11T13:09:47.832Z,12.84
2017-12-11T13:10:47.862Z,12.41
2017-12-11T13:11:47.917Z,12.15
2017-12-11T13:12:47.959Z,11.70
2017-12-11T13:13:48.007Z,11.34
2017-12-11T13:14:48.072Z,11.06
2017-12-11T13:15:48.103Z,11.38
2017-12-11T13:16:48.156Z,11.74